Time;durP1;ratioP1;P1;durP2;ratioP2;P2;SDS_P1;SDS_P2;PMS_P1;PMS_P2;Temp;Humidity;BMP_temperature;BMP_pressure;BME280_temperature;BME280_humidity;BME280_pressure;Samples;Min_cycle;Max_cycle;Signal;HPM_P1;HPM_P2
2021/12/10 00:01:18;;;;;;;4.20;3.27;;;0.20;99.90;;;;;;5044660;28;20630;-83
2021/12/10 00:03:48;;;;;;;5.50;3.88;;;0.10;99.90;;;;;;5028288;28;20439;-84
2021/12/10 00:06:22;;;;;;;5.53;3.10;;;0.20;99.90;;;;;;5028556;28;20235;-84
2021/12/10 00:08:57;;;;;;;7.93;3.85;;;0.10;99.90;;;;;;5043404;28;20242;-81
2021/12/10 00:11:33;;;;;;;9.05;3.10;;;0.00;99.90;;;;;;5021403;28;20196;-83
2021/12/10 00:13:59;;;;;;;4.13;2.30;;;0.10;99.90;;;;;;5024279;28;20232;-82
2021/12/10 00:16:25;;;;;;;4.15;1.70;;;0.10;99.90;;;;;;5047579;28;20292;-82
2021/12/10 00:18:55;;;;;;;7.13;2.13;;;0.10;99.90;;;;;;5030318;28;20303;-82
2021/12/10 00:21:25;;;;;;;8.95;3.33;;;0.20;99.90;;;;;;5023288;28;20189;-84
2021/12/10 00:23:52;;;;;;;3.05;1.52;;;0.20;99.90;;;;;;5043510;28;20197;-84
2021/12/10 00:26:20;;;;;;;1.75;1.55;;;0.20;99.90;;;;;;5024276;28;20189;-83
2021/12/10 00:28:46;;;;;;;3.10;1.58;;;0.10;99.90;;;;;;5026662;28;20260;-81
2021/12/10 00:31:30;;;;;;;4.80;1.65;;;0.40;99.90;;;;;;5019699;28;20243;-81
2021/12/10 00:34:00;;;;;;;7.68;2.38;;;0.40;99.90;;;;;;5046845;28;20205;-83
2021/12/10 00:36:27;;;;;;;4.50;2.15;;;0.90;99.90;;;;;;5037429;28;20208;-79
2021/12/10 00:38:53;;;;;;;5.95;1.70;;;0.40;99.90;;;;;;5052003;28;20177;-85
2021/12/10 00:41:20;;;;;;;3.50;1.70;;;0.40;99.90;;;;;;5047523;28;20223;-83
2021/12/10 00:43:46;;;;;;;3.10;1.65;;;0.40;99.90;;;;;;5014493;28;20204;-85
2021/12/10 00:46:13;;;;;;;2.93;2.23;;;0.40;99.90;;;;;;5039022;28;20185;-84
2021/12/10 00:48:39;;;;;;;4.50;1.90;;;0.40;99.90;;;;;;5013397;28;20451;-81
2021/12/10 00:51:08;;;;;;;8.68;3.08;;;0.50;99.90;;;;;;5032684;28;20192;-83
2021/12/10 00:53:34;;;;;;;2.83;1.67;;;0.50;99.90;;;;;;5014638;28;20289;-83
2021/12/10 00:56:01;;;;;;;3.45;1.77;;;0.50;99.90;;;;;;5023701;28;20264;-81
2021/12/10 00:58:30;;;;;;;6.65;2.10;;;0.70;99.90;;;;;;5019320;28;20185;-84
2021/12/10 01:01:00;;;;;;;4.10;2.47;;;0.60;99.90;;;;;;5031325;28;20365;-82
2021/12/10 01:03:30;;;;;;;2.05;1.75;;;0.70;99.90;;;;;;5033626;28;20298;-81
2021/12/10 01:06:01;;;;;;;4.22;1.92;;;0.80;99.90;;;;;;5034913;28;20918;-84
2021/12/10 01:08:27;;;;;;;3.17;1.17;;;0.70;99.90;;;;;;5044958;28;20185;-85
2021/12/10 01:11:00;;;;;;;2.90;1.45;;;0.70;99.90;;;;;;5041007;28;20196;-84
2021/12/10 01:13:31;;;;;;;3.17;1.75;;;0.70;99.90;;;;;;5016366;28;20197;-84
2021/12/10 01:16:14;;;;;;;7.47;2.20;;;0.70;99.90;;;;;;5016509;28;20204;-86
2021/12/10 01:24:37;;;;;;;4.15;1.90;;;0.80;99.90;;;;;;5038765;28;20228;-85
2021/12/10 01:27:12;;;;;;;5.15;1.27;;;0.80;99.90;;;;;;5043263;28;20177;-83
2021/12/10 01:29:43;;;;;;;8.73;1.85;;;0.80;99.90;;;;;;5020385;28;20193;-82
2021/12/10 01:32:12;;;;;;;4.90;1.27;;;0.80;99.90;;;;;;5021581;28;20188;-83
2021/12/10 01:34:39;;;;;;;2.53;1.95;;;0.80;99.90;;;;;;5034291;28;20676;-83
2021/12/10 01:37:05;;;;;;;8.73;1.80;;;0.80;99.90;;;;;;5011810;28;20209;-79
2021/12/10 01:39:34;;;;;;;5.10;2.28;;;0.80;99.90;;;;;;5027217;28;20173;-82
2021/12/10 01:42:14;;;;;;;5.13;1.58;;;0.80;99.90;;;;;;5043269;28;20189;-82
2021/12/10 01:44:45;;;;;;;3.90;2.25;;;0.80;99.90;;;;;;5040648;28;20220;-81
2021/12/10 01:47:13;;;;;;;3.55;1.20;;;0.80;99.90;;;;;;5042345;28;20271;-81
2021/12/10 01:49:40;;;;;;;1.60;1.10;;;0.80;99.90;;;;;;5040556;28;20192;-79
2021/12/10 01:52:07;;;;;;;4.05;1.70;;;0.90;99.90;;;;;;5021623;28;20319;-82
2021/12/10 01:54:39;;;;;;;2.75;1.45;;;0.90;99.90;;;;;;5041879;28;20823;-85
2021/12/10 01:57:07;;;;;;;2.83;1.55;;;0.90;99.90;;;;;;5020863;28;20212;-85
2021/12/10 01:59:35;;;;;;;8.93;2.10;;;0.80;99.90;;;;;;5042372;28;20192;-84
2021/12/10 02:02:15;;;;;;;9.02;1.45;;;0.80;99.90;;;;;;5025646;28;20212;-83
2021/12/10 02:04:43;;;;;;;1.80;1.30;;;0.80;99.90;;;;;;5035923;28;21313;-81
2021/12/10 02:07:12;;;;;;;5.65;1.52;;;0.80;99.90;;;;;;5027070;28;20482;-83
2021/12/10 02:09:37;;;;;;;3.53;1.40;;;0.80;99.90;;;;;;5036588;28;20196;-81
2021/12/10 02:12:04;;;;;;;2.17;1.70;;;0.80;99.90;;;;;;5032961;28;20185;-86
2021/12/10 02:14:30;;;;;;;5.13;2.15;;;0.80;99.90;;;;;;5019140;28;20196;-83
2021/12/10 02:16:58;;;;;;;3.57;1.30;;;0.80;99.90;;;;;;5022651;28;20208;-83
2021/12/10 02:19:23;;;;;;;4.30;1.50;;;0.80;99.90;;;;;;5026859;28;20177;-83
2021/12/10 02:21:49;;;;;;;4.07;1.20;;;0.80;99.90;;;;;;5041642;28;20732;-81
2021/12/10 02:24:15;;;;;;;3.03;1.20;;;0.70;99.90;;;;;;5042412;28;20201;-80
2021/12/10 02:26:52;;;;;;;3.27;1.40;;;0.70;99.90;;;;;;5022412;28;20584;-85
2021/12/10 02:29:21;;;;;;;4.30;1.45;;;0.70;99.90;;;;;;5041762;28;20442;-79
2021/12/10 02:31:48;;;;;;;2.10;1.25;;;0.60;99.90;;;;;;5023786;28;20185;-83
2021/12/10 02:34:13;;;;;;;3.63;1.20;;;0.60;99.90;;;;;;5044509;28;20216;-82
2021/12/10 02:36:42;;;;;;;4.77;2.27;;;0.60;99.90;;;;;;5050487;28;20277;-81
2021/12/10 02:39:10;;;;;;;5.07;1.20;;;0.60;99.90;;;;;;5045393;28;20450;-85
2021/12/10 02:41:35;;;;;;;3.55;1.17;;;0.60;99.90;;;;;;5028449;28;20293;-83
2021/12/10 02:44:04;;;;;;;5.40;1.33;;;0.60;99.90;;;;;;5026755;28;20268;-84
2021/12/10 02:46:30;;;;;;;5.25;1.98;;;1.60;99.90;;;;;;5042745;28;20308;-81
2021/12/10 02:48:56;;;;;;;4.72;1.92;;;0.50;99.90;;;;;;5026615;28;20248;-85
2021/12/10 02:51:23;;;;;;;8.77;2.08;;;0.60;99.90;;;;;;5020687;28;20201;-83
2021/12/10 02:53:48;;;;;;;4.85;1.80;;;0.50;99.90;;;;;;5018901;28;20212;-82
2021/12/10 02:56:18;;;;;;;5.70;2.00;;;0.60;99.90;;;;;;5025567;28;20205;-85
2021/12/10 02:58:46;;;;;;;3.53;2.00;;;0.50;99.90;;;;;;5026871;28;20677;-82
2021/12/10 03:01:21;;;;;;;1.25;0.93;;;0.50;99.90;;;;;;5045600;28;20181;-81
2021/12/10 03:03:47;;;;;;;3.30;1.40;;;0.30;99.90;;;;;;5029554;28;20211;-84
2021/12/10 03:06:15;;;;;;;4.40;1.70;;;0.50;99.90;;;;;;5029549;28;20191;-85
2021/12/10 03:08:44;;;;;;;3.95;1.92;;;0.50;99.90;;;;;;5023884;28;20209;-79
2021/12/10 03:11:12;;;;;;;6.93;1.55;;;0.50;99.90;;;;;;5034161;28;20223;-83
2021/12/10 03:13:39;;;;;;;4.50;1.63;;;0.60;99.90;;;;;;5023746;28;20248;-83
2021/12/10 03:16:06;;;;;;;12.60;2.28;;;0.60;99.90;;;;;;5023422;28;20209;-85
2021/12/10 03:18:32;;;;;;;7.38;2.03;;;0.60;99.90;;;;;;5042000;28;20183;-83
2021/12/10 03:20:58;;;;;;;14.38;2.50;;;0.50;99.90;;;;;;5029807;28;20180;-82
2021/12/10 03:23:24;;;;;;;3.77;1.40;;;0.60;99.90;;;;;;5025164;28;20201;-81
2021/12/10 03:25:49;;;;;;;8.03;1.73;;;0.50;99.90;;;;;;5041481;28;20185;-81
2021/12/10 03:28:15;;;;;;;3.53;2.30;;;0.50;99.90;;;;;;5016821;28;20185;-83
2021/12/10 03:30:46;;;;;;;6.07;1.83;;;0.50;99.90;;;;;;5046088;28;20561;-83
2021/12/10 03:33:12;;;;;;;3.90;1.65;;;0.60;99.90;;;;;;5025924;28;20205;-83
2021/12/10 03:35:42;;;;;;;1.73;1.30;;;0.50;99.90;;;;;;5026738;28;20315;-85
2021/12/10 03:38:11;;;;;;;5.25;1.67;;;0.50;99.90;;;;;;5046950;28;20226;-82
2021/12/10 03:40:38;;;;;;;2.28;1.13;;;0.50;99.90;;;;;;5038423;28;20274;-83
2021/12/10 03:43:06;;;;;;;4.95;1.60;;;0.50;99.90;;;;;;5039585;28;20200;-86
2021/12/10 03:45:36;;;;;;;6.43;2.30;;;0.50;99.90;;;;;;5040475;28;20204;-85
2021/12/10 03:48:08;;;;;;;1.20;1.10;;;1.20;99.90;;;;;;5041949;28;20193;-83
2021/12/10 03:50:34;;;;;;;31.35;2.83;;;0.50;99.90;;;;;;5015911;28;20185;-84
2021/12/10 03:53:00;;;;;;;6.30;2.30;;;0.50;99.90;;;;;;5019622;28;20715;-86
2021/12/10 03:55:27;;;;;;;5.60;1.23;;;0.50;99.90;;;;;;5043719;28;20185;-85
2021/12/10 03:57:55;;;;;;;2.85;2.35;;;0.50;99.90;;;;;;5045892;28;20639;-85
2021/12/10 04:00:24;;;;;;;2.00;1.40;;;0.40;99.90;;;;;;5038273;28;20211;-84
2021/12/10 04:02:53;;;;;;;3.95;1.48;;;0.40;99.90;;;;;;5026266;28;20185;-82
2021/12/10 04:05:20;;;;;;;6.28;2.15;;;0.50;99.90;;;;;;5023798;28;20181;-81
2021/12/10 04:07:46;;;;;;;3.95;1.88;;;0.50;99.90;;;;;;5035904;28;20181;-84
2021/12/10 04:10:14;;;;;;;2.87;1.17;;;0.50;99.90;;;;;;5019584;28;20185;-83
2021/12/10 04:12:40;;;;;;;5.75;1.63;;;0.50;99.90;;;;;;5039525;28;20200;-86
2021/12/10 04:15:07;;;;;;;3.30;2.10;;;0.50;99.90;;;;;;5044018;28;20208;-84
2021/12/10 04:17:34;;;;;;;3.90;1.65;;;0.50;99.90;;;;;;5022865;28;20209;-86
2021/12/10 04:20:00;;;;;;;10.07;1.75;;;0.50;99.90;;;;;;5038963;28;20254;-82
2021/12/10 04:22:32;;;;;;;7.10;1.57;;;0.60;99.90;;;;;;5021874;28;20820;-84
2021/12/10 04:25:03;;;;;;;6.22;2.22;;;0.50;99.90;;;;;;5044784;28;20197;-85
2021/12/10 04:27:29;;;;;;;2.67;1.00;;;0.40;99.90;;;;;;5020496;28;20694;-84
2021/12/10 04:29:57;;;;;;;3.50;1.67;;;0.40;99.90;;;;;;5019106;28;20268;-80
2021/12/10 04:32:25;;;;;;;3.25;1.33;;;0.30;99.90;;;;;;5017824;28;20200;-83
2021/12/10 04:34:52;;;;;;;2.28;1.10;;;0.30;99.90;;;;;;5028926;28;20208;-83
2021/12/10 04:37:18;;;;;;;4.95;2.05;;;0.40;99.90;;;;;;5025282;28;20683;-80
2021/12/10 04:39:46;;;;;;;7.68;1.85;;;0.30;99.90;;;;;;5035419;28;20174;-84
2021/12/10 04:42:21;;;;;;;5.55;2.22;;;0.30;99.90;;;;;;5038767;28;20178;-85
2021/12/10 04:44:47;;;;;;;2.83;1.25;;;0.30;99.90;;;;;;5024938;28;20275;-83
2021/12/10 04:47:13;;;;;;;1.90;1.80;;;0.30;99.90;;;;;;5023972;28;20591;-84
2021/12/10 04:49:39;;;;;;;2.77;1.53;;;;;;;;;;5042626;28;20180;-82
2021/12/10 04:52:06;;;;;;;1.67;1.58;;;0.20;99.90;;;;;;5041495;28;20228;-82
2021/12/10 04:54:33;;;;;;;2.05;1.75;;;0.30;99.90;;;;;;5021294;28;20298;-81
2021/12/10 04:56:59;;;;;;;8.75;3.13;;;0.30;99.90;;;;;;5037342;28;20208;-83
2021/12/10 04:59:28;;;;;;;10.60;1.37;;;0.30;99.90;;;;;;5031639;28;20180;-82
2021/12/10 05:01:56;;;;;;;4.07;3.65;;;0.30;99.90;;;;;;5023328;28;20963;-85
2021/12/10 05:04:23;;;;;;;7.00;2.17;;;0.30;99.90;;;;;;5019756;28;20235;-83
2021/12/10 05:06:50;;;;;;;5.45;2.63;;;0.20;99.90;;;;;;5020906;28;20213;-82
2021/12/10 05:09:16;;;;;;;6.20;3.15;;;0.20;99.90;;;;;;5041410;28;20245;-80
2021/12/10 05:11:42;;;;;;;2.73;1.30;;;0.30;99.90;;;;;;5028631;28;20272;-81
2021/12/10 05:14:09;;;;;;;6.78;2.22;;;0.30;99.90;;;;;;5045136;28;20197;-81
2021/12/10 05:16:40;;;;;;;5.50;2.88;;;1.60;99.90;;;;;;5029982;28;20243;-84
2021/12/10 05:19:06;;;;;;;4.82;3.45;;;0.30;99.90;;;;;;5018307;28;20243;-84
2021/12/10 05:21:34;;;;;;;3.00;1.73;;;0.30;99.90;;;;;;5044177;28;20812;-85
2021/12/10 05:24:00;;;;;;;8.02;2.55;;;0.20;99.90;;;;;;5025451;28;20456;-82
2021/12/10 05:26:27;;;;;;;4.97;1.60;;;0.10;99.90;;;;;;5018596;28;20291;-86
2021/12/10 05:28:53;;;;;;;3.03;2.20;;;;;;;;;;5021412;28;20196;-85
2021/12/10 05:31:20;;;;;;;5.18;1.85;;;0.00;99.90;;;;;;5043405;28;20189;-84
2021/12/10 05:33:45;;;;;;;2.00;1.27;;;0.00;99.90;;;;;;5042799;28;20225;-81
2021/12/10 05:36:11;;;;;;;7.53;2.30;;;;;;;;;;5019055;28;20263;-84
2021/12/10 05:38:37;;;;;;;4.73;2.30;;;-0.10;99.90;;;;;;5024619;28;20218;-82
2021/12/10 05:41:06;;;;;;;4.30;2.45;;;3.10;99.90;;;;;;5016129;28;20870;-80
2021/12/10 05:43:33;;;;;;;2.75;2.20;;;-0.10;99.90;;;;;;5036447;28;20219;-80
2021/12/10 05:45:59;;;;;;;5.15;2.47;;;0.00;99.90;;;;;;5035276;28;20239;-85
2021/12/10 05:48:25;;;;;;;5.28;2.35;;;0.00;99.90;;;;;;5018929;28;20192;-81
2021/12/10 05:50:51;;;;;;;5.87;3.03;;;;;;;;;;5021556;28;20439;-83
2021/12/10 05:53:17;;;;;;;5.45;2.67;;;0.00;99.90;;;;;;5005726;28;20204;-79
2021/12/10 05:55:43;;;;;;;7.07;3.60;;;0.00;99.90;;;;;;5039278;28;20181;-82
2021/12/10 05:58:11;;;;;;;3.35;3.05;;;0.10;99.90;;;;;;5020337;28;21223;-85
2021/12/10 06:00:42;;;;;;;4.60;2.92;;;0.10;99.90;;;;;;5036835;28;20191;-83
2021/12/10 06:03:08;;;;;;;8.68;4.00;;;0.00;99.90;;;;;;5015177;28;20192;-83
2021/12/10 06:05:35;;;;;;;6.93;4.40;;;0.00;99.90;;;;;;5012797;28;20181;-83
2021/12/10 06:08:03;;;;;;;11.75;3.67;;;0.10;99.90;;;;;;5042103;28;20245;-83
2021/12/10 06:10:29;;;;;;;6.20;2.30;;;0.10;99.90;;;;;;5027595;28;20302;-83
2021/12/10 06:12:55;;;;;;;11.10;3.73;;;0.10;99.90;;;;;;5046360;28;20986;-82
2021/12/10 06:15:22;;;;;;;7.68;4.32;;;0.10;99.90;;;;;;5018270;28;20764;-82
2021/12/10 06:17:49;;;;;;;6.20;3.35;;;0.10;99.90;;;;;;5040671;28;20295;-85
2021/12/10 06:20:22;;;;;;;9.18;4.30;;;0.10;99.90;;;;;;5036581;28;20196;-83
2021/12/10 06:22:49;;;;;;;8.98;4.22;;;0.20;99.90;;;;;;5036378;28;20188;-82
2021/12/10 06:25:15;;;;;;;8.30;4.72;;;0.30;99.90;;;;;;5008062;28;20255;-83
2021/12/10 06:27:44;;;;;;;4.90;2.92;;;0.30;99.90;;;;;;5015827;28;20179;-83
2021/12/10 06:30:17;;;;;;;10.65;4.65;;;0.20;99.90;;;;;;5023850;28;20268;-85
2021/12/10 06:32:45;;;;;;;13.25;4.38;;;0.20;99.90;;;;;;5025830;28;20211;-84
2021/12/10 06:35:12;;;;;;;8.68;3.70;;;0.30;99.90;;;;;;5027700;28;20703;-86
2021/12/10 06:37:39;;;;;;;6.30;2.67;;;0.20;99.90;;;;;;5025934;28;20292;-83
2021/12/10 06:40:09;;;;;;;10.90;3.72;;;0.20;99.90;;;;;;5026865;28;20238;-86
2021/12/10 06:42:35;;;;;;;5.75;3.60;;;0.30;99.90;;;;;;5042095;28;20251;-85
2021/12/10 06:45:04;;;;;;;6.03;3.43;;;0.30;99.90;;;;;;5048773;28;20193;-81
2021/12/10 06:47:30;;;;;;;6.57;2.88;;;0.30;99.90;;;;;;5065153;28;20513;-85
2021/12/10 06:49:55;;;;;;;9.93;3.37;;;0.30;99.90;;;;;;5043335;28;20188;-86
2021/12/10 06:52:21;;;;;;;7.77;2.90;;;0.30;99.90;;;;;;5037834;28;20187;-85
2021/12/10 06:54:47;;;;;;;4.37;3.10;;;;;;;;;;5020946;28;20201;-84
2021/12/10 06:57:12;;;;;;;7.80;5.20;;;0.30;99.90;;;;;;5035892;28;20208;-83
2021/12/10 06:59:38;;;;;;;6.97;3.03;;;0.30;99.90;;;;;;5023790;28;20453;-82
2021/12/10 07:02:04;;;;;;;11.30;3.03;;;0.30;99.90;;;;;;5037997;28;20660;-82
2021/12/10 07:04:29;;;;;;;5.53;3.20;;;0.40;99.90;;;;;;5024739;28;20265;-84
2021/12/10 07:06:58;;;;;;;7.60;3.87;;;0.40;99.90;;;;;;5026884;28;20445;-82
2021/12/10 07:09:25;;;;;;;3.22;2.38;;;0.10;99.90;;;;;;5041426;28;20195;-85
2021/12/10 07:11:52;;;;;;;9.75;5.05;;;0.50;99.90;;;;;;5017671;28;20192;-83
2021/12/10 07:14:18;;;;;;;12.10;4.72;;;0.50;99.90;;;;;;5016148;28;20200;-86
2021/12/10 07:16:46;;;;;;;6.20;3.90;;;0.50;99.90;;;;;;5013184;28;20205;-83
2021/12/10 07:19:11;;;;;;;6.18;4.05;;;0.60;99.90;;;;;;5032167;28;20760;-84
2021/12/10 07:21:37;;;;;;;7.50;3.83;;;0.50;99.90;;;;;;5020542;28;20193;-85
2021/12/10 07:24:07;;;;;;;5.30;3.55;;;0.60;99.90;;;;;;5016094;28;20376;-83
2021/12/10 07:26:34;;;;;;;4.40;3.33;;;1.60;99.90;;;;;;5015855;28;20272;-83
2021/12/10 07:29:00;;;;;;;8.35;3.63;;;0.60;99.90;;;;;;5038291;28;21071;-83
2021/12/10 07:31:26;;;;;;;7.30;3.50;;;0.60;99.90;;;;;;5014487;28;20176;-84
2021/12/10 07:33:54;;;;;;;5.43;3.72;;;0.70;99.90;;;;;;5030466;28;20213;-83
2021/12/10 07:36:21;;;;;;;9.70;4.90;;;0.30;99.90;;;;;;5017491;28;20296;-84
2021/12/10 07:38:47;;;;;;;5.63;3.88;;;0.70;99.90;;;;;;5019826;28;20192;-83
2021/12/10 07:41:12;;;;;;;6.40;4.13;;;0.80;99.90;;;;;;5019685;28;20181;-85
2021/12/10 07:43:39;;;;;;;5.37;3.37;;;0.80;99.90;;;;;;5025663;28;20470;-81
2021/12/10 07:46:05;;;;;;;8.40;3.83;;;0.80;99.90;;;;;;5011997;28;20177;-84
2021/12/10 07:48:34;;;;;;;7.13;4.85;;;0.80;99.90;;;;;;5006858;28;20177;-82
2021/12/10 07:51:04;;;;;;;12.85;4.20;;;0.90;99.90;;;;;;5033202;28;20177;-83
2021/12/10 07:53:32;;;;;;;13.55;4.60;;;1.00;99.90;;;;;;5024930;28;20484;-81
2021/12/10 07:56:01;;;;;;;8.73;5.32;;;1.00;99.90;;;;;;5013917;28;20235;-80
2021/12/10 07:58:27;;;;;;;9.77;4.55;;;1.10;99.90;;;;;;5016385;28;20181;-84
2021/12/10 08:00:54;;;;;;;6.85;3.28;;;1.00;99.90;;;;;;5027703;28;20181;-82
2021/12/10 08:03:20;;;;;;;11.57;3.60;;;1.00;99.90;;;;;;5011235;28;20779;-83
2021/12/10 08:05:47;;;;;;;10.02;5.93;;;1.00;99.90;;;;;;5019860;28;20266;-85
2021/12/10 08:08:14;;;;;;;12.32;5.03;;;1.10;99.90;;;;;;5038685;28;20268;-84
2021/12/10 08:10:42;;;;;;;12.27;6.50;;;0.20;99.90;;;;;;5020802;28;20196;-86
2021/12/10 08:13:08;;;;;;;10.63;6.78;;;1.00;99.90;;;;;;5044398;28;20577;-83
2021/12/10 08:15:34;;;;;;;11.53;5.37;;;1.00;99.90;;;;;;5033518;28;20200;-80
2021/12/10 08:18:01;;;;;;;17.00;9.63;;;1.00;99.90;;;;;;5036551;28;20625;-87
2021/12/10 08:20:28;;;;;;;14.48;4.35;;;1.00;99.90;;;;;;5015137;28;20249;-83
2021/12/10 08:22:54;;;;;;;6.40;4.18;;;1.00;99.90;;;;;;5025238;28;20177;-84
2021/12/10 08:25:21;;;;;;;11.32;6.18;;;0.90;99.90;;;;;;5025856;28;20185;-83
2021/12/10 08:27:49;;;;;;;12.00;6.53;;;0.90;99.90;;;;;;5015473;28;20189;-83
2021/12/10 08:30:18;;;;;;;18.20;9.73;;;0.90;99.90;;;;;;5021103;28;20181;-85
2021/12/10 08:32:45;;;;;;;11.77;7.45;;;1.00;99.90;;;;;;5041678;28;20255;-83
2021/12/10 08:35:14;;;;;;;24.92;10.95;;;1.10;99.90;;;;;;5022978;28;20205;-84
2021/12/10 08:37:41;;;;;;;15.30;6.35;;;1.00;99.90;;;;;;5027000;28;20251;-83
2021/12/10 08:40:09;;;;;;;18.63;8.70;;;1.10;99.90;;;;;;5017193;28;20272;-84
2021/12/10 08:42:35;;;;;;;22.70;8.02;;;1.10;99.90;;;;;;5040583;28;20189;-83
2021/12/10 08:45:01;;;;;;;22.37;9.83;;;;;;;;;;5017942;28;20251;-85
2021/12/10 08:47:27;;;;;;;17.90;5.97;;;1.10;99.90;;;;;;5039107;28;20181;-84
2021/12/10 08:49:53;;;;;;;24.13;11.60;;;1.30;99.90;;;;;;5018315;28;20447;-84
2021/12/10 08:52:19;;;;;;;14.37;7.70;;;1.30;99.90;;;;;;5022498;28;20202;-83
2021/12/10 08:54:45;;;;;;;10.55;6.68;;;1.30;99.90;;;;;;5020015;28;20711;-83
2021/12/10 08:57:11;;;;;;;9.17;5.33;;;1.30;99.90;;;;;;5020522;28;20196;-82
2021/12/10 08:59:38;;;;;;;9.65;5.82;;;1.30;99.90;;;;;;5040468;28;20268;-82
2021/12/10 09:02:07;;;;;;;11.80;6.15;;;1.20;99.90;;;;;;5035562;28;20187;-84
2021/12/10 09:04:35;;;;;;;10.60;5.80;;;1.30;99.90;;;;;;5017120;28;20204;-83
2021/12/10 09:07:13;;;;;;;14.88;7.43;;;1.40;99.90;;;;;;5021353;28;20196;-83
2021/12/10 09:09:42;;;;;;;15.23;7.65;;;1.30;99.90;;;;;;5041693;28;20268;-83
2021/12/10 09:12:16;;;;;;;10.80;5.97;;;1.30;99.90;;;;;;5037947;28;20185;-83
2021/12/10 09:14:47;;;;;;;5.15;3.53;;;1.40;99.90;;;;;;5018141;28;20196;-81
2021/12/10 09:17:20;;;;;;;6.35;4.45;;;1.40;99.90;;;;;;5031159;28;20208;-84
2021/12/10 09:19:45;;;;;;;11.50;7.32;;;1.40;99.90;;;;;;5021373;28;20177;-82
2021/12/10 09:22:14;;;;;;;7.97;5.30;;;1.50;99.90;;;;;;5028916;28;20858;-84
2021/12/10 09:24:41;;;;;;;7.85;4.60;;;1.50;99.90;;;;;;5020533;28;20211;-82
2021/12/10 09:27:08;;;;;;;5.45;3.15;;;1.20;99.90;;;;;;5020600;28;20185;-82
2021/12/10 09:29:36;;;;;;;5.38;3.58;;;1.60;99.90;;;;;;5039820;28;21213;-82
2021/12/10 09:32:05;;;;;;;8.82;3.72;;;1.50;99.90;;;;;;5020720;28;20181;-84
2021/12/10 09:34:30;;;;;;;10.27;5.22;;;1.70;99.90;;;;;;5041102;28;20310;-83
2021/12/10 09:36:56;;;;;;;7.47;4.97;;;1.70;99.90;;;;;;5022767;28;20299;-83
2021/12/10 09:39:22;;;;;;;5.43;3.90;;;1.70;99.90;;;;;;5014913;28;20193;-84
2021/12/10 09:41:49;;;;;;;6.28;3.28;;;1.80;99.90;;;;;;5040332;28;22000;-83
2021/12/10 09:44:18;;;;;;;8.27;4.80;;;1.80;99.90;;;;;;5039853;28;20192;-85
2021/12/10 09:46:45;;;;;;;5.65;3.20;;;1.80;99.90;;;;;;5045810;28;20306;-88
2021/12/10 09:49:13;;;;;;;9.82;3.90;;;1.70;99.90;;;;;;5012774;28;20177;-82
2021/12/10 09:51:48;;;;;;;7.80;4.78;;;1.60;99.90;;;;;;5022506;28;20669;-85
2021/12/10 09:54:18;;;;;;;17.15;3.70;;;1.80;99.90;;;;;;5013850;28;21335;-84
2021/12/10 09:56:48;;;;;;;5.15;3.50;;;1.80;99.90;;;;;;5017419;28;21513;-84
2021/12/10 09:59:15;;;;;;;5.50;3.08;;;1.90;99.90;;;;;;5041161;28;20196;-81
2021/12/10 10:01:45;;;;;;;9.13;4.85;;;1.90;99.90;;;;;;5035247;28;20180;-84
2021/12/10 10:04:14;;;;;;;5.93;4.40;;;1.90;99.90;;;;;;5021930;28;20207;-83
2021/12/10 10:06:44;;;;;;;9.80;4.43;;;1.90;99.90;;;;;;5038004;28;20187;-83
2021/12/10 10:09:14;;;;;;;12.60;5.15;;;1.90;99.90;;;;;;5019780;28;20197;-85
2021/12/10 10:11:41;;;;;;;6.63;4.47;;;1.90;99.90;;;;;;5022180;28;20677;-85
2021/12/10 10:14:07;;;;;;;15.50;7.97;;;2.00;99.90;;;;;;5020401;28;20247;-84
2021/12/10 10:16:35;;;;;;;8.57;4.97;;;2.00;99.90;;;;;;5040568;28;20231;-83
2021/12/10 10:19:02;;;;;;;9.07;3.63;;;2.00;99.90;;;;;;5032623;28;21486;-81
2021/12/10 10:21:32;;;;;;;8.10;3.97;;;2.10;99.90;;;;;;5030334;28;20726;-84
2021/12/10 10:23:58;;;;;;;9.13;3.53;;;1.90;99.90;;;;;;5026082;28;20205;-84
2021/12/10 10:26:32;;;;;;;11.90;4.72;;;1.70;99.90;;;;;;5019960;28;20208;-84
2021/12/10 10:29:00;;;;;;;14.80;8.23;;;2.10;99.90;;;;;;5020729;28;20253;-86
2021/12/10 10:31:26;;;;;;;9.60;4.22;;;2.20;99.90;;;;;;5040474;28;20211;-84
2021/12/10 10:33:55;;;;;;;13.43;5.23;;;2.20;99.90;;;;;;5022142;28;20227;-85
2021/12/10 10:36:25;;;;;;;9.80;5.40;;;2.30;99.90;;;;;;5023497;28;20498;-81
2021/12/10 10:38:59;;;;;;;5.32;4.15;;;2.30;99.90;;;;;;5024570;28;20185;-85
2021/12/10 10:41:27;;;;;;;7.15;3.55;;;2.30;99.90;;;;;;5041326;28;20177;-84
2021/12/10 10:43:54;;;;;;;6.03;4.80;;;2.40;99.90;;;;;;5013558;28;20205;-83
2021/12/10 10:46:20;;;;;;;6.60;4.20;;;2.50;99.90;;;;;;5021798;28;20196;-83
2021/12/10 10:48:48;;;;;;;20.10;8.20;;;2.50;99.90;;;;;;5036616;28;20173;-83
2021/12/10 10:51:52;;;;;;;9.30;4.55;;;2.40;99.90;;;;;;5024526;28;20276;-83
2021/12/10 10:54:18;;;;;;;86.05;33.00;;;2.40;99.90;;;;;;4993593;28;20208;-84
2021/12/10 10:56:46;;;;;;;7.30;4.37;;;2.60;99.90;;;;;;5012491;28;21079;-83
2021/12/10 10:59:17;;;;;;;27.20;9.57;;;2.70;99.90;;;;;;5016260;28;20177;-86
2021/12/10 11:01:57;;;;;;;16.15;7.45;;;2.70;99.90;;;;;;5021310;28;20181;-82
2021/12/10 11:04:27;;;;;;;7.63;4.68;;;2.70;99.90;;;;;;5015144;28;20218;-82
2021/12/10 11:07:12;;;;;;;13.73;6.47;;;2.80;99.90;;;;;;5021013;28;20696;-84
2021/12/10 11:09:46;;;;;;;40.10;17.33;;;2.80;99.90;;;;;;5046792;28;20231;-84
2021/12/10 11:12:20;;;;;;;6.47;4.30;;;2.60;99.90;;;;;;5041138;28;20189;-81
2021/12/10 11:14:51;;;;;;;19.77;8.25;;;2.80;99.90;;;;;;5021704;28;20205;-81
2021/12/10 11:17:31;;;;;;;9.13;4.95;;;2.90;99.90;;;;;;5020180;28;21007;-84
2021/12/10 11:20:04;;;;;;;11.70;5.13;;;3.00;99.90;;;;;;5027620;28;20183;-81
2021/12/10 11:22:31;;;;;;;22.08;11.20;;;3.00;99.90;;;;;;5041307;28;20188;-83
2021/12/10 11:25:28;;;;;;;32.75;14.55;;;3.00;99.90;;;;;;5026872;28;20204;-81
2021/12/10 11:28:07;;;;;;;23.98;11.88;;;3.10;99.90;;;;;;5036547;28;20189;-83
2021/12/10 11:30:33;;;;;;;23.00;13.38;;;3.20;99.90;;;;;;5025830;28;20204;-79
2021/12/10 11:33:09;;;;;;;8.55;5.63;;;3.20;99.90;;;;;;5031077;28;20220;-84
2021/12/10 11:35:42;;;;;;;16.65;6.60;;;3.20;99.90;;;;;;5014173;28;20999;-84
2021/12/10 11:38:29;;;;;;;30.77;12.18;;;3.20;99.90;;;;;;5043982;28;20204;-82
2021/12/10 11:41:18;;;;;;;11.00;5.70;;;3.10;99.90;;;;;;5041476;28;20775;-83
2021/12/10 11:44:21;;;;;;;8.68;4.85;;;3.20;99.90;;;;;;5025451;28;20663;-84
2021/12/10 11:49:18;;;;;;;34.67;18.90;;;;;;;;;;5037598;28;20276;-82
2021/12/10 11:51:48;;;;;;;6.93;4.67;;;3.00;99.90;;;;;;5021649;28;20911;-84
2021/12/10 11:54:31;;;;;;;15.18;9.38;;;3.20;99.90;;;;;;5037507;28;20455;-84
2021/12/10 11:57:12;;;;;;;15.98;4.13;;;3.00;99.90;;;;;;5035481;28;20732;-86
2021/12/10 11:59:48;;;;;;;8.30;5.00;;;3.10;99.90;;;;;;5017907;28;21148;-83
2021/12/10 12:02:24;;;;;;;6.05;2.55;;;3.00;99.90;;;;;;5039924;28;20173;-82
2021/12/10 12:04:56;;;;;;;7.50;4.05;;;2.90;99.90;;;;;;5023715;28;20203;-83
2021/12/10 12:07:40;;;;;;;2.33;2.08;;;2.90;99.90;;;;;;5040122;28;20216;-83
2021/12/10 12:10:28;;;;;;;9.90;5.50;;;2.70;99.90;;;;;;5021759;28;20185;-83
2021/12/10 12:15:54;;;;;;;4.85;2.60;;;2.50;99.90;;;;;;5038543;28;20260;-82
2021/12/10 12:18:26;;;;;;;5.47;3.67;;;2.50;99.90;;;;;;5040811;28;20231;-82
2021/12/10 12:27:05;;;;;;;4.07;2.80;;;2.10;99.90;;;;;;5035357;28;20242;-83
2021/12/10 12:29:39;;;;;;;8.73;4.93;;;2.10;99.90;;;;;;5017906;28;20751;-83
2021/12/10 12:32:11;;;;;;;8.98;4.45;;;1.90;99.90;;;;;;5041775;28;20236;-84
2021/12/10 12:34:37;;;;;;;2.33;1.75;;;1.80;99.90;;;;;;5027051;28;20208;-86
2021/12/10 12:37:05;;;;;;;5.80;3.70;;;1.70;99.90;;;;;;5031656;28;20203;-84
2021/12/10 12:39:50;;;;;;;6.43;2.72;;;1.70;99.90;;;;;;5039744;28;20181;-85
2021/12/10 12:42:32;;;;;;;8.93;2.15;;;1.70;99.90;;;;;;5021740;28;20307;-83
2021/12/10 12:44:59;;;;;;;5.57;1.58;;;1.70;99.90;;;;;;5017573;28;20299;-83
2021/12/10 12:47:34;;;;;;;6.82;1.92;;;1.70;99.90;;;;;;5027928;28;20196;-83
2021/12/10 12:50:08;;;;;;;3.50;2.38;;;1.70;99.90;;;;;;5038227;28;20926;-83
2021/12/10 12:52:51;;;;;;;3.20;2.25;;;1.60;99.90;;;;;;5020977;28;20192;-82
2021/12/10 12:55:47;;;;;;;1.42;1.33;;;1.60;99.90;;;;;;5033479;28;20205;-83
2021/12/10 12:58:28;;;;;;;1.58;0.90;;;1.50;99.90;;;;;;5021143;28;20209;-84
2021/12/10 13:01:16;;;;;;;3.25;1.05;;;1.50;99.90;;;;;;5040411;28;20181;-85
2021/12/10 13:03:55;;;;;;;2.60;1.15;;;1.50;99.90;;;;;;5036584;28;20603;-83
2021/12/10 13:06:23;;;;;;;1.40;0.80;;;1.30;99.90;;;;;;5033534;28;20196;-82
2021/12/10 13:09:10;;;;;;;2.88;2.63;;;1.30;99.90;;;;;;5014279;28;20265;-83
2021/12/10 13:11:49;;;;;;;4.60;1.13;;;1.30;99.90;;;;;;5014266;28;20275;-84
2021/12/10 13:14:18;;;;;;;2.45;0.70;;;1.30;99.90;;;;;;5025896;28;20203;-82
2021/12/10 13:16:48;;;;;;;2.55;0.80;;;1.30;99.90;;;;;;5034474;28;20202;-82
2021/12/10 13:19:27;;;;;;;2.42;1.02;;;1.30;99.90;;;;;;5024414;28;20215;-85
2021/12/10 13:22:01;;;;;;;2.53;1.45;;;1.30;99.90;;;;;;5035579;28;20182;-84
2021/12/10 13:24:27;;;;;;;2.60;1.25;;;1.30;99.90;;;;;;5037258;28;20219;-84